sensor_id;sensor_type;location;lat;lon;timestamp;pressure;altitude;pressure_sealevel;temperature;humidity
14800;BME280;7491;57.750;11.970;2023-04-03T00:01:18;79057.53;;;-142.11;100.00
14800;BME280;7491;57.750;11.970;2023-04-03T00:03:45;79051.41;;;-142.11;100.00
14800;BME280;7491;57.750;11.970;2023-04-03T00:06:12;79055.47;;;-142.11;100.00
14800;BME280;7491;57.750;11.970;2023-04-03T00:08:39;79049.34;;;-142.11;100.00
14800;BME280;7491;57.750;11.970;2023-04-03T00:11:07;79061.59;;;-142.11;100.00
14800;BME280;7491;57.750;11.970;2023-04-03T00:13:33;79065.69;;;-142.11;100.00
14800;BME280;7491;57.750;11.970;2023-04-03T00:16:02;79065.69;;;-142.11;100.00
14800;BME280;7491;57.750;11.970;2023-04-03T00:18:29;79075.88;;;-142.11;100.00
14800;BME280;7491;57.750;11.970;2023-04-03T00:20:56;79075.88;;;-142.11;100.00
14800;BME280;7491;57.750;11.970;2023-04-03T00:23:22;79079.97;;;-142.11;100.00
14800;BME280;7491;57.750;11.970;2023-04-03T00:25:52;79086.09;;;-142.11;100.00
14800;BME280;7491;57.750;11.970;2023-04-03T00:28:18;79090.16;;;-142.11;100.00
14800;BME280;7491;57.750;11.970;2023-04-03T00:30:45;79094.25;;;-142.11;100.00
14800;BME280;7491;57.750;11.970;2023-04-03T00:33:14;79094.25;;;-142.11;100.00
14800;BME280;7491;57.750;11.970;2023-04-03T00:35:41;79098.31;;;-142.11;100.00
14800;BME280;7491;57.750;11.970;2023-04-03T00:38:08;79104.44;;;-142.11;100.00
14800;BME280;7491;57.750;11.970;2023-04-03T00:40:36;79106.50;;;-142.11;100.00
14800;BME280;7491;57.750;11.970;2023-04-03T00:43:10;79120.78;;;-142.11;100.00
14800;BME280;7491;57.750;11.970;2023-04-03T00:45:40;79128.94;;;-142.11;100.00
14800;BME280;7491;57.750;11.970;2023-04-03T00:48:08;79133.00;;;-142.11;100.00
14800;BME280;7491;57.750;11.970;2023-04-03T00:50:40;79149.34;;;-142.11;100.00
14800;BME280;7491;57.750;11.970;2023-04-03T00:53:11;79147.28;;;-142.11;100.00
14800;BME280;7491;57.750;11.970;2023-04-03T00:55:39;79149.34;;;-142.11;100.00
14800;BME280;7491;57.750;11.970;2023-04-03T00:58:06;79147.28;;;-142.11;100.00
14800;BME280;7491;57.750;11.970;2023-04-03T01:00:36;79161.56;;;-142.11;100.00
14800;BME280;7491;57.750;11.970;2023-04-03T01:03:03;79165.66;;;-142.11;100.00
14800;BME280;7491;57.750;11.970;2023-04-03T01:05:31;79159.53;;;-142.11;100.00
14800;BME280;7491;57.750;11.970;2023-04-03T01:07:59;79165.66;;;-142.11;100.00
14800;BME280;7491;57.750;11.970;2023-04-03T01:10:26;79167.69;;;-142.11;100.00
14800;BME280;7491;57.750;11.970;2023-04-03T01:12:53;79169.72;;;-142.11;100.00
14800;BME280;7491;57.750;11.970;2023-04-03T01:15:22;79181.97;;;-142.11;100.00
14800;BME280;7491;57.750;11.970;2023-04-03T01:17:51;79173.81;;;-142.11;100.00
14800;BME280;7491;57.750;11.970;2023-04-03T01:20:58;79179.94;;;-142.11;100.00
14800;BME280;7491;57.750;11.970;2023-04-03T01:23:39;79184.00;;;-142.11;100.00
14800;BME280;7491;57.750;11.970;2023-04-03T01:26:08;79196.25;;;-142.11;100.00
14800;BME280;7491;57.750;11.970;2023-04-03T01:28:37;79200.34;;;-142.11;100.00
14800;BME280;7491;57.750;11.970;2023-04-03T01:31:10;79210.53;;;-142.11;100.00
14800;BME280;7491;57.750;11.970;2023-04-03T01:33:43;79222.78;;;-142.11;100.00
14800;BME280;7491;57.750;11.970;2023-04-03T01:36:14;79226.88;;;-142.11;100.00
14800;BME280;7491;57.750;11.970;2023-04-03T01:38:41;79245.22;;;-142.11;100.00
14800;BME280;7491;57.750;11.970;2023-04-03T01:41:07;79245.22;;;-142.11;100.00
14800;BME280;7491;57.750;11.970;2023-04-03T01:43:34;79235.03;;;-142.11;100.00
14800;BME280;7491;57.750;11.970;2023-04-03T01:46:01;79241.16;;;-142.11;100.00
14800;BME280;7491;57.750;11.970;2023-04-03T01:48:27;79245.22;;;-142.11;100.00
14800;BME280;7491;57.750;11.970;2023-04-03T01:50:55;79255.44;;;-142.11;100.00
14800;BME280;7491;57.750;11.970;2023-04-03T01:53:22;79265.63;;;-142.11;100.00
14800;BME280;7491;57.750;11.970;2023-04-03T01:55:49;79267.66;;;-142.11;100.00
14800;BME280;7491;57.750;11.970;2023-04-03T01:58:15;79275.84;;;-142.11;100.00
14800;BME280;7491;57.750;11.970;2023-04-03T02:00:42;79263.59;;;-142.11;100.00
14800;BME280;7491;57.750;11.970;2023-04-03T02:03:09;79269.72;;;-142.11;100.00
14800;BME280;7491;57.750;11.970;2023-04-03T02:05:35;79273.78;;;-142.11;100.00
14800;BME280;7491;57.750;11.970;2023-04-03T02:08:04;79267.66;;;-142.11;100.00
14800;BME280;7491;57.750;11.970;2023-04-03T02:10:31;79277.88;;;-142.11;100.00
14800;BME280;7491;57.750;11.970;2023-04-03T02:12:58;79279.91;;;-142.11;100.00
14800;BME280;7491;57.750;11.970;2023-04-03T02:15:24;79292.16;;;-142.11;100.00
14800;BME280;7491;57.750;11.970;2023-04-03T02:17:51;79292.16;;;-142.11;100.00
14800;BME280;7491;57.750;11.970;2023-04-03T02:20:18;79296.25;;;-142.11;100.00
14800;BME280;7491;57.750;11.970;2023-04-03T02:22:45;79302.34;;;-142.11;100.00
14800;BME280;7491;57.750;11.970;2023-04-03T02:25:13;79312.56;;;-142.11;100.00
14800;BME280;7491;57.750;11.970;2023-04-03T02:27:40;79310.53;;;-142.11;100.00
14800;BME280;7491;57.750;11.970;2023-04-03T02:30:07;79314.59;;;-142.11;100.00
14800;BME280;7491;57.750;11.970;2023-04-03T02:32:35;79318.69;;;-142.11;100.00
14800;BME280;7491;57.750;11.970;2023-04-03T02:35:02;79314.59;;;-142.11;100.00
14800;BME280;7491;57.750;11.970;2023-04-03T02:37:29;79312.56;;;-142.11;100.00
14800;BME280;7491;57.750;11.970;2023-04-03T02:39:56;79312.56;;;-142.11;100.00
14800;BME280;7491;57.750;11.970;2023-04-03T02:42:24;79310.53;;;-142.11;100.00
14800;BME280;7491;57.750;11.970;2023-04-03T02:44:51;79304.41;;;-142.11;100.00
14800;BME280;7491;57.750;11.970;2023-04-03T02:47:18;79310.53;;;-142.11;100.00
14800;BME280;7491;57.750;11.970;2023-04-03T02:49:44;79306.44;;;-142.11;100.00
14800;BME280;7491;57.750;11.970;2023-04-03T02:52:12;79308.47;;;-142.11;100.00
14800;BME280;7491;57.750;11.970;2023-04-03T02:54:38;79326.84;;;-142.11;100.00
14800;BME280;7491;57.750;11.970;2023-04-03T02:57:06;79337.03;;;-142.11;100.00
14800;BME280;7491;57.750;11.970;2023-04-03T02:59:35;79332.97;;;-142.11;100.00
14800;BME280;7491;57.750;11.970;2023-04-03T03:02:03;79328.88;;;-142.11;100.00
14800;BME280;7491;57.750;11.970;2023-04-03T03:04:29;79330.91;;;-142.11;100.00
14800;BME280;7491;57.750;11.970;2023-04-03T03:06:56;79339.09;;;-142.11;100.00
14800;BME280;7491;57.750;11.970;2023-04-03T03:09:23;79341.13;;;-142.11;100.00
14800;BME280;7491;57.750;11.970;2023-04-03T03:11:50;79347.25;;;-142.11;100.00
14800;BME280;7491;57.750;11.970;2023-04-03T03:14:17;79343.16;;;-142.11;100.00
14800;BME280;7491;57.750;11.970;2023-04-03T03:16:45;79355.41;;;-142.11;100.00
14800;BME280;7491;57.750;11.970;2023-04-03T03:19:12;79355.41;;;-142.11;100.00
14800;BME280;7491;57.750;11.970;2023-04-03T03:21:38;79361.53;;;-142.11;100.00
14800;BME280;7491;57.750;11.970;2023-04-03T03:24:06;79357.44;;;-142.11;100.00
14800;BME280;7491;57.750;11.970;2023-04-03T03:26:32;79353.38;;;-142.11;100.00
14800;BME280;7491;57.750;11.970;2023-04-03T03:28:59;79359.50;;;-142.11;100.00
14800;BME280;7491;57.750;11.970;2023-04-03T03:31:26;79355.41;;;-142.11;100.00
14800;BME280;7491;57.750;11.970;2023-04-03T03:33:54;79359.50;;;-142.11;100.00
14800;BME280;7491;57.750;11.970;2023-04-03T03:36:21;79355.41;;;-142.11;100.00
14800;BME280;7491;57.750;11.970;2023-04-03T03:38:47;79357.44;;;-142.11;100.00
14800;BME280;7491;57.750;11.970;2023-04-03T03:41:14;79357.44;;;-142.11;100.00
14800;BME280;7491;57.750;11.970;2023-04-03T03:43:41;79367.66;;;-142.11;100.00
14800;BME280;7491;57.750;11.970;2023-04-03T03:46:07;79377.84;;;-142.11;100.00
14800;BME280;7491;57.750;11.970;2023-04-03T03:48:34;79381.94;;;-142.11;100.00
14800;BME280;7491;57.750;11.970;2023-04-03T03:51:02;79381.94;;;-142.11;100.00
14800;BME280;7491;57.750;11.970;2023-04-03T03:53:29;79375.81;;;-142.11;100.00
14800;BME280;7491;57.750;11.970;2023-04-03T03:55:55;79369.69;;;-142.11;100.00
14800;BME280;7491;57.750;11.970;2023-04-03T03:58:22;79371.72;;;-142.11;100.00
14800;BME280;7491;57.750;11.970;2023-04-03T04:00:49;79361.53;;;-142.11;100.00
14800;BME280;7491;57.750;11.970;2023-04-03T04:03:16;79373.78;;;-142.11;100.00
14800;BME280;7491;57.750;11.970;2023-04-03T04:05:43;79373.78;;;-142.11;100.00
14800;BME280;7491;57.750;11.970;2023-04-03T04:08:11;79386.00;;;-142.11;100.00
14800;BME280;7491;57.750;11.970;2023-04-03T04:10:38;79392.13;;;-142.11;100.00
14800;BME280;7491;57.750;11.970;2023-04-03T04:13:05;79390.09;;;-142.11;100.00
14800;BME280;7491;57.750;11.970;2023-04-03T04:15:31;79383.97;;;-142.11;100.00
14800;BME280;7491;57.750;11.970;2023-04-03T04:17:59;79388.06;;;-142.11;100.00
14800;BME280;7491;57.750;11.970;2023-04-03T04:20:25;79400.28;;;-142.11;100.00
14800;BME280;7491;57.750;11.970;2023-04-03T04:22:52;79404.38;;;-142.11;100.00
14800;BME280;7491;57.750;11.970;2023-04-03T04:25:20;79418.66;;;-142.11;100.00
14800;BME280;7491;57.750;11.970;2023-04-03T04:27:46;79406.41;;;-142.11;100.00
14800;BME280;7491;57.750;11.970;2023-04-03T04:30:13;79418.66;;;-142.11;100.00
14800;BME280;7491;57.750;11.970;2023-04-03T04:32:40;79416.63;;;-142.11;100.00
14800;BME280;7491;57.750;11.970;2023-04-03T04:35:07;79406.41;;;-142.11;100.00
14800;BME280;7491;57.750;11.970;2023-04-03T04:37:35;79404.38;;;-142.11;100.00
14800;BME280;7491;57.750;11.970;2023-04-03T04:40:02;79400.28;;;-142.11;100.00
14800;BME280;7491;57.750;11.970;2023-04-03T04:42:30;79400.28;;;-142.11;100.00
14800;BME280;7491;57.750;11.970;2023-04-03T04:44:56;79390.09;;;-142.11;100.00
14800;BME280;7491;57.750;11.970;2023-04-03T04:47:23;79390.09;;;-142.11;100.00
14800;BME280;7491;57.750;11.970;2023-04-03T04:49:50;79406.41;;;-142.11;100.00
14800;BME280;7491;57.750;11.970;2023-04-03T04:52:17;79396.22;;;-142.11;100.00
14800;BME280;7491;57.750;11.970;2023-04-03T04:54:44;79394.19;;;-142.11;100.00
14800;BME280;7491;57.750;11.970;2023-04-03T04:57:10;79388.06;;;-142.11;100.00
14800;BME280;7491;57.750;11.970;2023-04-03T04:59:38;79394.19;;;-142.11;100.00
14800;BME280;7491;57.750;11.970;2023-04-03T05:02:05;79400.28;;;-142.11;100.00
14800;BME280;7491;57.750;11.970;2023-04-03T05:04:31;79414.56;;;-142.11;100.00
14800;BME280;7491;57.750;11.970;2023-04-03T05:06:58;79428.88;;;-142.11;100.00
14800;BME280;7491;57.750;11.970;2023-04-03T05:09:25;79418.66;;;-142.11;100.00
14800;BME280;7491;57.750;11.970;2023-04-03T05:11:52;79424.78;;;-142.11;100.00
14800;BME280;7491;57.750;11.970;2023-04-03T05:14:19;79426.81;;;-142.11;100.00
14800;BME280;7491;57.750;11.970;2023-04-03T05:16:47;79410.50;;;-142.11;100.00
14800;BME280;7491;57.750;11.970;2023-04-03T05:19:13;79398.25;;;-142.11;100.00
14800;BME280;7491;57.750;11.970;2023-04-03T05:21:40;79381.94;;;-142.11;100.00
14800;BME280;7491;57.750;11.970;2023-04-03T05:24:07;79375.81;;;-142.11;100.00
14800;BME280;7491;57.750;11.970;2023-04-03T05:26:35;79365.59;;;-142.11;100.00
14800;BME280;7491;57.750;11.970;2023-04-03T05:29:02;79265.63;;;-142.11;100.00
14800;BME280;7491;57.750;11.970;2023-04-03T05:31:29;79181.97;;;-142.11;100.00
14800;BME280;7491;57.750;11.970;2023-04-03T05:33:57;79022.84;;;-142.11;100.00
14800;BME280;7491;57.750;11.970;2023-04-03T05:36:24;78924.91;;;-142.11;100.00
14800;BME280;7491;57.750;11.970;2023-04-03T05:38:51;78763.75;;;-142.11;100.00
14800;BME280;7491;57.750;11.970;2023-04-03T05:41:18;78635.22;;;-142.11;100.00
14800;BME280;7491;57.750;11.970;2023-04-03T05:43:46;78545.47;;;-142.11;100.00
14800;BME280;7491;57.750;11.970;2023-04-03T05:46:14;78504.66;;;-142.11;100.00
14800;BME280;7491;57.750;11.970;2023-04-03T05:48:41;78492.44;;;-142.11;100.00
14800;BME280;7491;57.750;11.970;2023-04-03T05:51:14;78508.75;;;-142.11;98.78
14800;BME280;7491;57.750;11.970;2023-04-03T05:53:43;78523.03;;;-142.11;98.06
14800;BME280;7491;57.750;11.970;2023-04-03T05:56:09;78512.81;;;-142.11;98.07
14800;BME280;7491;57.750;11.970;2023-04-03T05:58:36;78508.75;;;-142.11;98.01
14800;BME280;7491;57.750;11.970;2023-04-03T06:01:03;78625.03;;;-142.11;98.75
14800;BME280;7491;57.750;11.970;2023-04-03T06:03:30;78651.53;;;-142.11;99.76
14800;BME280;7491;57.750;11.970;2023-04-03T06:05:57;78680.09;;;-142.11;100.00
14800;BME280;7491;57.750;11.970;2023-04-03T06:08:25;78716.81;;;-142.11;100.00
14800;BME280;7491;57.750;11.970;2023-04-03T06:10:52;78790.25;;;-142.11;100.00
14800;BME280;7491;57.750;11.970;2023-04-03T06:13:18;78863.72;;;-142.11;100.00
14800;BME280;7491;57.750;11.970;2023-04-03T06:15:45;78831.06;;;-142.11;100.00
14800;BME280;7491;57.750;11.970;2023-04-03T06:18:12;78826.97;;;-142.11;100.00
14800;BME280;7491;57.750;11.970;2023-04-03T06:20:39;78837.19;;;-142.11;100.00
14800;BME280;7491;57.750;11.970;2023-04-03T06:23:06;78857.59;;;-142.11;100.00
14800;BME280;7491;57.750;11.970;2023-04-03T06:25:34;78894.31;;;-142.11;100.00
14800;BME280;7491;57.750;11.970;2023-04-03T06:28:01;78853.50;;;-142.11;100.00
14800;BME280;7491;57.750;11.970;2023-04-03T06:30:28;78857.59;;;-142.11;100.00
14800;BME280;7491;57.750;11.970;2023-04-03T06:32:54;78869.81;;;-142.11;100.00
14800;BME280;7491;57.750;11.970;2023-04-03T06:35:21;78884.09;;;-142.11;100.00
14800;BME280;7491;57.750;11.970;2023-04-03T06:37:49;78908.59;;;-142.11;100.00
14800;BME280;7491;57.750;11.970;2023-04-03T06:40:19;78886.16;;;-142.11;100.00
14800;BME280;7491;57.750;11.970;2023-04-03T06:42:48;78877.97;;;-142.11;100.00
14800;BME280;7491;57.750;11.970;2023-04-03T06:45:15;78896.34;;;-142.11;100.00
14800;BME280;7491;57.750;11.970;2023-04-03T06:47:42;78882.06;;;-142.11;100.00
14800;BME280;7491;57.750;11.970;2023-04-03T06:50:11;78855.53;;;-142.11;100.00
14800;BME280;7491;57.750;11.970;2023-04-03T06:52:39;78855.53;;;-142.11;100.00
14800;BME280;7491;57.750;11.970;2023-04-03T06:55:07;78849.44;;;-142.11;100.00
14800;BME280;7491;57.750;11.970;2023-04-03T06:57:35;78849.44;;;-142.11;97.66
14800;BME280;7491;57.750;11.970;2023-04-03T07:00:05;78814.75;;;-142.11;98.85
14800;BME280;7491;57.750;11.970;2023-04-03T07:02:32;78833.09;;;-142.11;97.77
14800;BME280;7491;57.750;11.970;2023-04-03T07:04:59;78794.34;;;-142.11;98.94
14800;BME280;7491;57.750;11.970;2023-04-03T07:07:25;78790.25;;;-142.11;97.94
14800;BME280;7491;57.750;11.970;2023-04-03T07:09:52;78761.69;;;-142.11;98.05
14800;BME280;7491;57.750;11.970;2023-04-03T07:12:19;78771.91;;;-142.11;94.58
14800;BME280;7491;57.750;11.970;2023-04-03T07:14:46;78761.69;;;-142.11;94.62
14800;BME280;7491;57.750;11.970;2023-04-03T07:17:15;78788.22;;;-142.11;91.62
14800;BME280;7491;57.750;11.970;2023-04-03T07:19:42;78765.78;;;-142.11;92.67
14800;BME280;7491;57.750;11.970;2023-04-03T07:22:09;78751.50;;;-142.11;91.49
14800;BME280;7491;57.750;11.970;2023-04-03T07:24:39;78720.91;;;-142.11;92.18
14800;BME280;7491;57.750;11.970;2023-04-03T07:27:05;78696.41;;;-142.11;90.95
14800;BME280;7491;57.750;11.970;2023-04-03T07:29:33;78692.34;;;-142.11;89.56
14800;BME280;7491;57.750;11.970;2023-04-03T07:32:00;78694.38;;;-142.11;89.24
14800;BME280;7491;57.750;11.970;2023-04-03T07:34:31;78673.97;;;-142.11;88.28
14800;BME280;7491;57.750;11.970;2023-04-03T07:36:58;78659.69;;;-142.11;87.21
14800;BME280;7491;57.750;11.970;2023-04-03T07:39:25;78635.22;;;-142.11;89.52
14800;BME280;7491;57.750;11.970;2023-04-03T07:41:53;78616.88;;;-142.11;89.05
14800;BME280;7491;57.750;11.970;2023-04-03T07:44:20;78637.25;;;-142.11;84.61
14800;BME280;7491;57.750;11.970;2023-04-03T07:46:47;78631.16;;;-142.11;84.76
14800;BME280;7491;57.750;11.970;2023-04-03T07:49:21;78610.75;;;-142.11;84.05
14800;BME280;7491;57.750;11.970;2023-04-03T07:52:12;78576.06;;;-142.11;86.14
14800;BME280;7491;57.750;11.970;2023-04-03T07:54:40;78600.53;;;-142.11;85.43
14800;BME280;7491;57.750;11.970;2023-04-03T07:57:07;78598.50;;;-142.11;84.21
14800;BME280;7491;57.750;11.970;2023-04-03T07:59:34;78594.41;;;-142.11;86.02
14800;BME280;7491;57.750;11.970;2023-04-03T08:02:01;78563.81;;;-142.11;83.68
14800;BME280;7491;57.750;11.970;2023-04-03T08:04:30;78551.59;;;-142.11;85.46
14800;BME280;7491;57.750;11.970;2023-04-03T08:06:57;78559.75;;;-142.11;84.46
14800;BME280;7491;57.750;11.970;2023-04-03T08:09:25;78555.66;;;-142.11;83.76
14800;BME280;7491;57.750;11.970;2023-04-03T08:11:51;78549.53;;;-142.11;83.84
14800;BME280;7491;57.750;11.970;2023-04-03T08:14:19;78553.63;;;-142.11;83.01
14800;BME280;7491;57.750;11.970;2023-04-03T08:16:47;78535.25;;;-142.11;83.84
14800;BME280;7491;57.750;11.970;2023-04-03T08:19:14;78516.91;;;-142.11;82.13
14800;BME280;7491;57.750;11.970;2023-04-03T08:21:43;78576.06;;;-142.11;81.99
14800;BME280;7491;57.750;11.970;2023-04-03T08:24:10;78586.25;;;-142.11;82.56
14800;BME280;7491;57.750;11.970;2023-04-03T08:26:39;78586.25;;;-142.11;82.77
14800;BME280;7491;57.750;11.970;2023-04-03T08:29:05;78555.66;;;-142.11;82.60
14800;BME280;7491;57.750;11.970;2023-04-03T08:31:32;78504.66;;;-142.11;84.96
14800;BME280;7491;57.750;11.970;2023-04-03T08:33:59;78516.91;;;-142.11;83.29
14800;BME280;7491;57.750;11.970;2023-04-03T08:36:27;78496.50;;;-142.11;84.12
14800;BME280;7491;57.750;11.970;2023-04-03T08:38:55;78500.59;;;-142.11;83.66
14800;BME280;7491;57.750;11.970;2023-04-03T08:41:29;78494.47;;;-142.11;83.07
14800;BME280;7491;57.750;11.970;2023-04-03T08:44:03;78496.50;;;-142.11;82.39
14800;BME280;7491;57.750;11.970;2023-04-03T08:46:42;78488.34;;;-142.11;82.96
14800;BME280;7491;57.750;11.970;2023-04-03T08:49:20;78498.53;;;-142.11;83.03
14800;BME280;7491;57.750;11.970;2023-04-03T08:51:49;78484.28;;;-142.11;82.33
14800;BME280;7491;57.750;11.970;2023-04-03T08:54:24;78484.28;;;-142.11;80.12
14800;BME280;7491;57.750;11.970;2023-04-03T08:56:54;78484.28;;;-142.11;79.40
14800;BME280;7491;57.750;11.970;2023-04-03T08:59:27;78445.50;;;-142.11;80.11
14800;BME280;7491;57.750;11.970;2023-04-03T09:01:56;78419.00;;;-142.11;79.40
14800;BME280;7491;57.750;11.970;2023-04-03T09:04:25;78457.75;;;-142.11;78.02
14800;BME280;7491;57.750;11.970;2023-04-03T09:06:55;78425.13;;;-142.11;79.01
14800;BME280;7491;57.750;11.970;2023-04-03T09:09:31;78384.31;;;-142.11;79.24
14800;BME280;7491;57.750;11.970;2023-04-03T09:12:05;78384.31;;;-142.11;79.91
14800;BME280;7491;57.750;11.970;2023-04-03T09:14:39;78357.78;;;-142.11;82.31
14800;BME280;7491;57.750;11.970;2023-04-03T09:17:14;78349.63;;;-142.11;78.53
14800;BME280;7491;57.750;11.970;2023-04-03T09:19:51;78335.34;;;-142.11;78.83
14800;BME280;7491;57.750;11.970;2023-04-03T09:22:24;78339.44;;;-142.11;78.16
14800;BME280;7491;57.750;11.970;2023-04-03T09:24:56;78355.75;;;-142.11;76.38
14800;BME280;7491;57.750;11.970;2023-04-03T09:27:24;78347.59;;;-142.11;78.12
14800;BME280;7491;57.750;11.970;2023-04-03T09:29:54;78351.69;;;-142.11;77.27
14800;BME280;7491;57.750;11.970;2023-04-03T09:32:26;78321.09;;;-142.11;76.19
14800;BME280;7491;57.750;11.970;2023-04-03T09:34:55;78349.63;;;-142.11;76.03
14800;BME280;7491;57.750;11.970;2023-04-03T09:37:40;78347.59;;;-142.11;76.99
14800;BME280;7491;57.750;11.970;2023-04-03T09:40:28;78335.34;;;-142.11;76.82
14800;BME280;7491;57.750;11.970;2023-04-03T09:42:56;78306.81;;;-142.11;77.17
14800;BME280;7491;57.750;11.970;2023-04-03T09:45:26;78312.91;;;-142.11;77.19
14800;BME280;7491;57.750;11.970;2023-04-03T09:48:06;78304.75;;;-142.11;76.96
14800;BME280;7491;57.750;11.970;2023-04-03T09:50:34;78282.31;;;-142.11;77.78
14800;BME280;7491;57.750;11.970;2023-04-03T09:53:05;78274.16;;;-142.11;77.34
14800;BME280;7491;57.750;11.970;2023-04-03T09:55:33;78284.38;;;-142.11;77.66
14800;BME280;7491;57.750;11.970;2023-04-03T09:58:23;78266.00;;;-142.11;78.47
14800;BME280;7491;57.750;11.970;2023-04-03T10:00:56;78298.66;;;-142.11;77.85
14800;BME280;7491;57.750;11.970;2023-04-03T10:03:29;78310.88;;;-142.11;77.52
14800;BME280;7491;57.750;11.970;2023-04-03T10:05:56;78288.44;;;-142.11;78.40
14800;BME280;7491;57.750;11.970;2023-04-03T10:08:30;78288.44;;;-142.11;78.03
14800;BME280;7491;57.750;11.970;2023-04-03T10:11:15;78282.31;;;-142.11;77.50
14800;BME280;7491;57.750;11.970;2023-04-03T10:13:56;78280.28;;;-142.11;77.31
14800;BME280;7491;57.750;11.970;2023-04-03T10:16:32;78282.31;;;-142.11;77.13
14800;BME280;7491;57.750;11.970;2023-04-03T10:19:21;78263.97;;;-142.11;77.29
14800;BME280;7491;57.750;11.970;2023-04-03T10:21:59;78221.13;;;-142.11;78.45
14800;BME280;7491;57.750;11.970;2023-04-03T10:24:32;78198.69;;;-142.11;78.90
14800;BME280;7491;57.750;11.970;2023-04-03T10:27:06;78178.31;;;-142.11;79.76
14800;BME280;7491;57.750;11.970;2023-04-03T10:29:43;78159.94;;;-142.11;76.81
14800;BME280;7491;57.750;11.970;2023-04-03T10:32:28;78149.75;;;-142.11;77.44
14800;BME280;7491;57.750;11.970;2023-04-03T10:35:06;78172.19;;;-142.11;75.78
14800;BME280;7491;57.750;11.970;2023-04-03T10:37:42;78166.06;;;-142.11;78.41
14800;BME280;7491;57.750;11.970;2023-04-03T10:40:22;78170.13;;;-142.11;75.68
14800;BME280;7491;57.750;11.970;2023-04-03T10:42:55;78151.78;;;-142.11;76.00
14800;BME280;7491;57.750;11.970;2023-04-03T10:45:30;78164.03;;;-142.11;75.86
14800;BME280;7491;57.750;11.970;2023-04-03T10:48:09;78125.28;;;-142.11;77.34
14800;BME280;7491;57.750;11.970;2023-04-03T10:50:43;78111.00;;;-142.11;75.82
14800;BME280;7491;57.750;11.970;2023-04-03T10:53:20;78102.84;;;-142.11;77.19
14800;BME280;7491;57.750;11.970;2023-04-03T10:55:56;78129.34;;;-142.11;77.03
14800;BME280;7491;57.750;11.970;2023-04-03T10:58:32;78117.09;;;-142.11;77.25
14800;BME280;7491;57.750;11.970;2023-04-03T11:01:03;78123.22;;;-142.11;77.21
14800;BME280;7491;57.750;11.970;2023-04-03T11:03:36;78121.19;;;-142.11;76.89
14800;BME280;7491;57.750;11.970;2023-04-03T11:06:07;78090.59;;;-142.11;77.42
14800;BME280;7491;57.750;11.970;2023-04-03T11:08:38;78096.72;;;-142.11;75.60
14800;BME280;7491;57.750;11.970;2023-04-03T11:11:12;78090.59;;;-142.11;76.58
14800;BME280;7491;57.750;11.970;2023-04-03T11:13:43;78082.44;;;-142.11;75.56
14800;BME280;7491;57.750;11.970;2023-04-03T11:16:15;78098.75;;;-142.11;75.41
14800;BME280;7491;57.750;11.970;2023-04-03T11:18:49;78092.63;;;-142.11;76.32
14800;BME280;7491;57.750;11.970;2023-04-03T11:21:21;78090.59;;;-142.11;75.03
14800;BME280;7491;57.750;11.970;2023-04-03T11:23:51;78076.31;;;-142.11;75.99
14800;BME280;7491;57.750;11.970;2023-04-03T11:26:21;78088.56;;;-142.11;74.42
14800;BME280;7491;57.750;11.970;2023-04-03T11:28:56;78074.28;;;-142.11;75.01
14800;BME280;7491;57.750;11.970;2023-04-03T11:31:45;78066.13;;;-142.11;75.87
14800;BME280;7491;57.750;11.970;2023-04-03T11:34:33;78078.34;;;-142.11;74.46
14800;BME280;7491;57.750;11.970;2023-04-03T11:37:21;78041.63;;;-142.11;74.89
14800;BME280;7491;57.750;11.970;2023-04-03T11:40:12;78072.22;;;-142.11;75.32
14800;BME280;7491;57.750;11.970;2023-04-03T11:42:46;78027.38;;;-142.11;77.16
14800;BME280;7491;57.750;11.970;2023-04-03T11:45:36;78006.97;;;-142.11;76.89
14800;BME280;7491;57.750;11.970;2023-04-03T11:48:04;78021.25;;;-142.11;78.68
14800;BME280;7491;57.750;11.970;2023-04-03T11:50:46;78025.31;;;-142.11;80.51
14800;BME280;7491;57.750;11.970;2023-04-03T11:53:28;78015.13;;;-142.11;79.40
14800;BME280;7491;57.750;11.970;2023-04-03T11:56:29;78015.13;;;-142.11;79.21
14800;BME280;7491;57.750;11.970;2023-04-03T11:59:24;78039.59;;;-142.11;79.10
14800;BME280;7491;57.750;11.970;2023-04-03T12:01:53;78035.53;;;-142.11;79.18
14800;BME280;7491;57.750;11.970;2023-04-03T12:04:23;78029.41;;;-142.11;79.37
14800;BME280;7491;57.750;11.970;2023-04-03T12:06:59;78033.47;;;-142.11;78.58
14800;BME280;7491;57.750;11.970;2023-04-03T12:09:29;78029.41;;;-142.11;79.56
14800;BME280;7491;57.750;11.970;2023-04-03T12:12:22;78019.22;;;-142.11;79.09
14800;BME280;7491;57.750;11.970;2023-04-03T12:15:25;78025.31;;;-142.11;78.40
14800;BME280;7491;57.750;11.970;2023-04-03T12:17:52;78043.69;;;-142.11;78.51
14800;BME280;7491;57.750;11.970;2023-04-03T12:20:55;78047.75;;;-142.11;78.04
14800;BME280;7491;57.750;11.970;2023-04-03T12:23:30;78031.44;;;-142.11;78.13
14800;BME280;7491;57.750;11.970;2023-04-03T12:26:08;78021.25;;;-142.11;78.16
14800;BME280;7491;57.750;11.970;2023-04-03T12:28:48;78017.16;;;-142.11;78.21
14800;BME280;7491;57.750;11.970;2023-04-03T12:31:18;78002.88;;;-142.11;78.44
14800;BME280;7491;57.750;11.970;2023-04-03T12:34:00;78021.25;;;-142.11;77.93
14800;BME280;7491;57.750;11.970;2023-04-03T12:36:37;78006.97;;;-142.11;77.80
14800;BME280;7491;57.750;11.970;2023-04-03T12:39:16;78004.94;;;-142.11;78.14
14800;BME280;7491;57.750;11.970;2023-04-03T12:41:53;78002.88;;;-142.11;77.71
14800;BME280;7491;57.750;11.970;2023-04-03T12:44:34;78031.44;;;-142.11;77.64
14800;BME280;7491;57.750;11.970;2023-04-03T12:47:24;78006.97;;;-142.11;77.58
14800;BME280;7491;57.750;11.970;2023-04-03T12:49:53;78015.13;;;-142.11;76.98
14800;BME280;7491;57.750;11.970;2023-04-03T12:52:30;77994.72;;;-142.11;77.93